Time;durP1;ratioP1;P1;durP2;ratioP2;P2;SDS_P1;SDS_P2;PMS_P1;PMS_P2;Temp;Humidity;BMP_temperature;BMP_pressure;BME280_temperature;BME280_humidity;BME280_pressure;Samples;Min_cycle;Max_cycle;Signal;HPM_P1;HPM_P2
2023/04/23 00:01:34;;;;;;;6.15;3.58;;;12.70;26.40;;;;;;5034251;28;20466;-73
2023/04/23 00:04:03;;;;;;;6.80;3.50;;;12.60;18.10;;;;;;5033413;28;20033;-74
2023/04/23 00:06:29;;;;;;;3.85;3.20;;;12.70;20.00;;;;;;5032513;28;20037;-74
2023/04/23 00:08:58;;;;;;;6.30;3.65;;;12.60;4.30;;;;;;5033137;28;20036;-78
2023/04/23 00:11:25;;;;;;;5.28;3.17;;;12.60;5.30;;;;;;5033880;28;20030;-74
2023/04/23 00:13:51;;;;;;;4.95;3.35;;;12.60;1.20;;;;;;5033605;28;20029;-74
2023/04/23 00:16:19;;;;;;;5.72;3.10;;;12.60;12.90;;;;;;5031847;28;20072;-74
2023/04/23 00:18:45;;;;;;;6.28;3.40;;;12.50;20.70;;;;;;5032745;28;20113;-74
2023/04/23 00:21:12;;;;;;;6.40;3.33;;;12.50;17.60;;;;;;5032174;28;20049;-74
2023/04/23 00:23:38;;;;;;;5.18;3.00;;;12.50;28.50;;;;;;5032831;28;20040;-74
2023/04/23 00:26:05;;;;;;;5.68;3.38;;;12.50;39.40;;;;;;5031101;28;20452;-74
2023/04/23 00:28:31;;;;;;;4.30;3.17;;;12.50;33.70;;;;;;5032708;28;20497;-74
2023/04/23 00:30:57;;;;;;;6.45;4.07;;;12.50;40.20;;;;;;5028052;28;20041;-77
2023/04/23 00:33:24;;;;;;;5.10;3.78;;;12.50;40.50;;;;;;5035331;28;20038;-74
2023/04/23 00:35:50;;;;;;;4.80;3.65;;;12.40;51.80;;;;;;5034026;28;20041;-74
2023/04/23 00:38:16;;;;;;;5.57;3.88;;;12.40;61.10;;;;;;5031805;28;20053;-74
2023/04/23 00:40:42;;;;;;;6.90;4.55;;;12.40;71.40;;;;;;5031984;28;20044;-74
2023/04/23 00:43:08;;;;;;;7.40;3.70;;;12.40;76.80;;;;;;5032726;28;20133;-74
2023/04/23 00:45:35;;;;;;;7.63;3.95;;;12.40;84.30;;;;;;5025728;28;20037;-74
2023/04/23 00:48:02;;;;;;;9.02;4.97;;;12.30;85.10;;;;;;5026560;28;20057;-74
2023/04/23 00:50:28;;;;;;;6.03;4.07;;;12.30;92.50;;;;;;5027227;28;20485;-74
2023/04/23 00:52:58;;;;;;;8.27;3.70;;;12.30;99.00;;;;;;5023978;28;20025;-78
2023/04/23 00:55:24;;;;;;;5.15;3.97;;;12.30;93.90;;;;;;5029291;28;20052;-73
2023/04/23 00:57:53;;;;;;;6.00;3.88;;;12.30;85.70;;;;;;5028761;28;20029;-74
2023/04/23 01:00:19;;;;;;;6.10;4.35;;;12.30;90.60;;;;;;5033237;28;20053;-74
2023/04/23 01:02:47;;;;;;;5.32;4.32;;;12.30;91.30;;;;;;5026152;28;20040;-74
2023/04/23 01:05:16;;;;;;;7.55;4.68;;;12.20;95.30;;;;;;5032602;28;20052;-74
2023/04/23 01:07:44;;;;;;;7.78;4.18;;;12.20;99.90;;;;;;5033257;28;20045;-74
2023/04/23 01:10:11;;;;;;;11.13;5.07;;;12.20;99.90;;;;;;5027906;28;20046;-74
2023/04/23 01:12:37;;;;;;;7.35;5.78;;;12.20;99.90;;;;;;5030899;28;20030;-78
2023/04/23 01:15:04;;;;;;;8.63;5.05;;;12.20;99.90;;;;;;5021961;28;20045;-75
2023/04/23 01:17:33;;;;;;;8.73;5.45;;;12.20;99.90;;;;;;5032876;28;20029;-74
2023/04/23 01:19:59;;;;;;;9.38;4.72;;;12.20;99.90;;;;;;5031899;28;20044;-75
2023/04/23 01:22:25;;;;;;;5.93;4.85;;;12.20;99.90;;;;;;5031726;28;20029;-74
2023/04/23 01:24:52;;;;;;;9.90;5.55;;;12.20;99.90;;;;;;5030714;28;20038;-74
2023/04/23 01:27:19;;;;;;;10.38;5.50;;;12.20;99.90;;;;;;5023833;28;20048;-74
2023/04/23 01:29:46;;;;;;;9.73;5.95;;;12.20;99.90;;;;;;5027631;28;20048;-74
2023/04/23 01:32:13;;;;;;;10.02;6.05;;;12.20;99.90;;;;;;5031776;28;20045;-74
2023/04/23 01:34:40;;;;;;;9.02;5.45;;;12.20;99.90;;;;;;5028925;28;20399;-74
2023/04/23 01:37:07;;;;;;;9.38;5.30;;;12.10;99.90;;;;;;5031376;28;20036;-75
2023/04/23 01:39:35;;;;;;;6.57;4.78;;;12.10;99.90;;;;;;5032071;28;20053;-74
2023/04/23 01:42:02;;;;;;;8.90;4.97;;;12.10;99.90;;;;;;5026649;28;20049;-75
2023/04/23 01:44:29;;;;;;;9.07;5.40;;;12.10;99.90;;;;;;5026715;28;20029;-75
2023/04/23 01:46:56;;;;;;;6.70;4.95;;;12.10;99.90;;;;;;5026149;28;20071;-78
2023/04/23 01:49:22;;;;;;;8.18;5.32;;;12.10;99.90;;;;;;5031186;28;20025;-75
2023/04/23 01:51:48;;;;;;;8.50;5.32;;;12.10;99.90;;;;;;5032229;28;20403;-74
2023/04/23 01:54:14;;;;;;;5.70;4.65;;;12.00;99.90;;;;;;5030487;28;20033;-74
2023/04/23 01:56:41;;;;;;;9.65;5.57;;;12.00;99.90;;;;;;5030223;28;20049;-74
2023/04/23 01:59:07;;;;;;;7.72;5.32;;;12.00;99.90;;;;;;5026558;28;20383;-74
2023/04/23 02:02:00;;;;;;;7.05;5.20;;;12.00;99.90;;;;;;5027224;28;20041;-74
2023/04/23 02:04:28;;;;;;;6.95;4.75;;;12.00;99.90;;;;;;5031081;28;20037;-76
2023/04/23 02:06:55;;;;;;;8.52;4.97;;;12.00;99.90;;;;;;5029816;28;20039;-74
2023/04/23 02:09:21;;;;;;;7.80;5.30;;;12.00;99.90;;;;;;5031298;28;20045;-74
2023/04/23 02:11:47;;;;;;;6.00;4.60;;;12.00;99.90;;;;;;5032025;28;20032;-74
2023/04/23 02:14:13;;;;;;;7.80;5.38;;;12.00;99.90;;;;;;5028302;28;20029;-74
2023/04/23 02:16:39;;;;;;;9.15;5.50;;;12.00;99.90;;;;;;5030215;28;20029;-74
2023/04/23 02:19:05;;;;;;;9.07;5.18;;;12.00;99.90;;;;;;5031223;28;20046;-75
2023/04/23 02:21:32;;;;;;;7.30;5.55;;;12.00;99.90;;;;;;5027017;28;20041;-74
2023/04/23 02:23:58;;;;;;;8.02;5.00;;;12.00;99.90;;;;;;5030648;28;20033;-78
2023/04/23 02:26:24;;;;;;;8.88;5.25;;;12.00;99.90;;;;;;5029477;28;20041;-74
2023/04/23 02:28:50;;;;;;;7.40;5.53;;;12.00;99.90;;;;;;5025826;28;20033;-74
2023/04/23 02:31:17;;;;;;;7.65;5.88;;;12.00;99.90;;;;;;5023261;28;20052;-74
2023/04/23 02:33:45;;;;;;;8.27;4.93;;;12.00;99.90;;;;;;5030486;28;20036;-74
2023/04/23 02:36:11;;;;;;;7.30;4.90;;;12.00;99.90;;;;;;5028643;28;20052;-74
2023/04/23 02:38:41;;;;;;;8.18;4.95;;;12.00;99.90;;;;;;5030450;28;20355;-74
2023/04/23 02:41:07;;;;;;;7.03;4.68;;;12.00;99.90;;;;;;5031111;28;20064;-74
2023/04/23 02:43:33;;;;;;;6.60;4.70;;;11.90;99.90;;;;;;5030943;28;20056;-75
2023/04/23 02:46:06;;;;;;;8.27;5.30;;;11.90;99.90;;;;;;5029701;28;20030;-79
2023/04/23 02:48:41;;;;;;;7.88;5.22;;;11.90;99.90;;;;;;5028773;28;20056;-75
2023/04/23 02:51:10;;;;;;;6.47;4.47;;;11.90;99.90;;;;;;5024910;28;20045;-74
2023/04/23 02:53:36;;;;;;;6.13;5.10;;;11.80;99.90;;;;;;5031288;28;20041;-74
2023/04/23 02:56:03;;;;;;;7.85;5.20;;;11.90;99.90;;;;;;5028035;28;20037;-74
2023/04/23 02:58:30;;;;;;;6.75;5.75;;;11.80;99.90;;;;;;5022257;28;20038;-75
2023/04/23 03:00:59;;;;;;;7.22;5.45;;;11.80;99.90;;;;;;5019198;28;20041;-78
2023/04/23 03:03:30;;;;;;;9.05;5.75;;;11.80;99.90;;;;;;5025321;28;20045;-74
2023/04/23 03:05:57;;;;;;;10.38;5.90;;;11.80;99.90;;;;;;5019977;28;20046;-74
2023/04/23 03:08:23;;;;;;;8.18;5.97;;;11.80;99.90;;;;;;5029780;28;20061;-75
2023/04/23 03:10:49;;;;;;;6.07;5.45;;;11.70;99.90;;;;;;5030008;28;20042;-74
2023/04/23 03:13:15;;;;;;;8.52;5.05;;;11.70;99.90;;;;;;5029655;28;20049;-74
2023/04/23 03:15:41;;;;;;;10.77;6.35;;;11.70;99.90;;;;;;5027883;28;20034;-74
2023/04/23 03:18:08;;;;;;;8.02;6.00;;;11.70;99.90;;;;;;5030525;28;20467;-74
2023/04/23 03:20:36;;;;;;;8.85;6.85;;;11.70;99.90;;;;;;5030746;28;20410;-74
2023/04/23 03:23:05;;;;;;;8.63;5.15;;;11.70;99.90;;;;;;5033633;28;20049;-75
2023/04/23 03:25:32;;;;;;;7.22;5.53;;;11.60;99.90;;;;;;5032604;28;20045;-74
2023/04/23 03:27:59;;;;;;;6.10;5.03;;;11.60;99.90;;;;;;5033456;28;20037;-74
2023/04/23 03:30:26;;;;;;;7.20;5.43;;;11.60;99.90;;;;;;5028532;28;20053;-74
2023/04/23 03:32:55;;;;;;;6.22;5.57;;;11.60;99.90;;;;;;5032862;28;20045;-74
2023/04/23 03:35:25;;;;;;;9.52;5.50;;;11.60;99.90;;;;;;5032989;28;20061;-74
2023/04/23 03:37:54;;;;;;;7.57;5.90;;;11.60;99.90;;;;;;5025930;28;20412;-74
2023/04/23 03:40:21;;;;;;;10.05;6.53;;;11.60;99.90;;;;;;5032423;28;20052;-75
2023/04/23 03:42:51;;;;;;;8.15;5.38;;;11.60;99.90;;;;;;5030737;28;20057;-74
2023/04/23 03:45:21;;;;;;;;;;;11.60;99.90;;;;;;5032579;28;20045;-74
2023/04/23 03:47:48;;;;;;;8.10;6.00;;;11.60;99.90;;;;;;5031101;28;19916;-74
2023/04/23 03:50:16;;;;;;;6.78;5.35;;;11.60;99.90;;;;;;5030354;28;20049;-74
2023/04/23 03:52:43;;;;;;;8.50;6.07;;;11.60;99.90;;;;;;5033974;28;20041;-74
2023/04/23 03:55:19;;;;;;;7.43;6.00;;;11.60;99.90;;;;;;5028198;28;20052;-75
2023/04/23 03:57:45;;;;;;;8.25;5.32;;;11.50;99.90;;;;;;5028904;28;20044;-75
2023/04/23 04:00:23;;;;;;;7.15;6.18;;;11.50;99.90;;;;;;5029651;28;20045;-74
2023/04/23 04:02:49;;;;;;;10.80;6.10;;;11.50;99.90;;;;;;5034272;28;20382;-74
2023/04/23 04:05:15;;;;;;;8.15;5.65;;;11.50;99.90;;;;;;5032703;28;20048;-74
2023/04/23 04:07:42;;;;;;;8.93;5.28;;;11.50;99.90;;;;;;5034949;28;20046;-74
2023/04/23 04:10:08;;;;;;;9.43;5.40;;;11.40;99.90;;;;;;5033198;28;20044;-74
2023/04/23 04:12:35;;;;;;;7.20;5.60;;;11.40;99.90;;;;;;5027922;28;20033;-74
2023/04/23 04:15:02;;;;;;;8.50;6.22;;;11.40;99.90;;;;;;5030901;28;20038;-74
2023/04/23 04:17:28;;;;;;;7.05;5.53;;;11.40;99.90;;;;;;5033235;28;20048;-74
2023/04/23 04:19:54;;;;;;;7.57;5.93;;;11.40;99.90;;;;;;5033834;28;20048;-75
2023/04/23 04:22:20;;;;;;;6.65;5.45;;;11.40;99.90;;;;;;5032298;28;20034;-75
2023/04/23 04:24:47;;;;;;;6.30;4.57;;;11.40;99.90;;;;;;5030387;28;20033;-74
2023/04/23 04:27:13;;;;;;;5.57;4.45;;;11.40;99.90;;;;;;5030640;28;20044;-74
2023/04/23 04:29:40;;;;;;;4.78;4.13;;;11.30;99.90;;;;;;5032503;28;20033;-76
2023/04/23 04:32:10;;;;;;;4.80;3.50;;;11.30;99.90;;;;;;5033025;28;20037;-74
2023/04/23 04:34:37;;;;;;;5.45;4.05;;;11.30;95.10;;;;;;5027898;28;20040;-74
2023/04/23 04:37:03;;;;;;;4.82;3.22;;;11.20;85.10;;;;;;5034023;28;20053;-74
2023/04/23 04:39:29;;;;;;;4.80;3.58;;;11.20;68.30;;;;;;5033456;28;20033;-74
2023/04/23 04:41:56;;;;;;;4.68;3.35;;;11.20;56.30;;;;;;5034125;28;20046;-74
2023/04/23 04:44:22;;;;;;;5.63;3.03;;;11.20;53.80;;;;;;5031759;28;20386;-74
2023/04/23 04:46:48;;;;;;;6.45;3.50;;;11.20;54.50;;;;;;5032077;28;20037;-74
2023/04/23 04:49:18;;;;;;;4.85;3.67;;;11.20;53.20;;;;;;5031914;28;20033;-74
2023/04/23 04:51:44;;;;;;;5.97;3.97;;;11.20;56.50;;;;;;5032587;28;20045;-74
2023/04/23 04:54:10;;;;;;;4.10;3.10;;;11.30;66.60;;;;;;5031334;28;20029;-74
2023/04/23 04:56:37;;;;;;;5.03;3.45;;;11.30;67.60;;;;;;5032737;28;20033;-74
2023/04/23 04:59:03;;;;;;;5.20;3.17;;;11.30;69.60;;;;;;5033399;28;20041;-74
2023/04/23 05:01:29;;;;;;;4.13;3.28;;;11.20;64.40;;;;;;5029365;28;20048;-74
2023/04/23 05:03:56;;;;;;;5.78;3.55;;;11.30;67.00;;;;;;5033440;28;20026;-74
2023/04/23 05:06:22;;;;;;;4.95;3.50;;;11.30;70.10;;;;;;5029584;28;20045;-75
2023/04/23 05:08:48;;;;;;;4.53;3.42;;;11.30;62.80;;;;;;5033386;28;20410;-74
2023/04/23 05:11:18;;;;;;;4.88;3.45;;;11.40;57.70;;;;;;5032005;28;20038;-75
2023/04/23 05:13:46;;;;;;;5.23;3.40;;;11.40;53.20;;;;;;5033057;28;20394;-75
2023/04/23 05:16:12;;;;;;;8.90;5.13;;;11.40;57.40;;;;;;5030607;28;20033;-77
2023/04/23 05:18:39;;;;;;;5.15;3.67;;;11.40;50.30;;;;;;5032552;28;20374;-75
2023/04/23 05:21:06;;;;;;;7.88;5.25;;;11.50;48.20;;;;;;5031845;28;20502;-78
2023/04/23 05:23:33;;;;;;;7.47;5.88;;;11.50;39.50;;;;;;5031751;28;20041;-75
2023/04/23 05:26:02;;;;;;;5.35;3.17;;;11.40;35.70;;;;;;5030686;28;20037;-75
2023/04/23 05:28:29;;;;;;;24.45;17.38;;;11.40;34.40;;;;;;5032070;28;20041;-75
2023/04/23 05:30:56;;;;;;;20.77;14.70;;;11.40;38.40;;;;;;5033301;28;20048;-75
2023/04/23 05:33:22;;;;;;;6.65;5.22;;;11.40;44.50;;;;;;5028512;28;20029;-74
2023/04/23 05:35:48;;;;;;;9.70;7.32;;;11.40;42.50;;;;;;5031088;28;20037;-75
2023/04/23 05:38:14;;;;;;;6.03;4.47;;;11.50;43.20;;;;;;5032255;28;20035;-75
2023/04/23 05:40:40;;;;;;;9.68;6.47;;;11.50;40.10;;;;;;5032602;28;20033;-75
2023/04/23 05:43:06;;;;;;;13.63;8.65;;;11.50;47.50;;;;;;5033319;28;20052;-75
2023/04/23 05:45:32;;;;;;;4.97;3.58;;;11.60;45.00;;;;;;5030764;28;20044;-75
2023/04/23 05:47:59;;;;;;;35.95;23.02;;;11.60;29.30;;;;;;5028707;28;20044;-75
2023/04/23 05:50:25;;;;;;;52.28;32.10;;;11.70;18.30;;;;;;5031059;28;20052;-75
2023/04/23 05:52:51;;;;;;;7.07;5.22;;;11.80;10.10;;;;;;5029624;28;20048;-76
2023/04/23 05:55:19;;;;;;;33.53;23.65;;;11.80;1.00;;;;;;5026940;28;20475;-75
2023/04/23 05:57:45;;;;;;;24.90;17.67;;;11.90;1.00;;;;;;5033152;28;20475;-75
2023/04/23 06:00:12;;;;;;;5.80;3.95;;;12.00;1.00;;;;;;5029442;28;20036;-75
2023/04/23 06:02:39;;;;;;;16.70;11.38;;;12.00;1.00;;;;;;5033013;28;20394;-75
2023/04/23 06:05:06;;;;;;;7.18;4.50;;;12.10;1.00;;;;;;5030873;28;20029;-75
2023/04/23 06:07:33;;;;;;;4.28;2.90;;;12.10;1.00;;;;;;5032356;28;20041;-75
2023/04/23 06:09:59;;;;;;;3.45;2.90;;;12.20;1.00;;;;;;5031964;28;20372;-75
2023/04/23 06:12:25;;;;;;;13.38;11.27;;;12.20;1.00;;;;;;5031126;28;20041;-75
2023/04/23 06:14:52;;;;;;;11.68;7.95;;;12.30;1.00;;;;;;5030215;28;20033;-75
2023/04/23 06:17:18;;;;;;;4.55;3.60;;;12.40;1.00;;;;;;5030714;28;20040;-76
2023/04/23 06:19:44;;;;;;;13.07;9.00;;;12.50;1.00;;;;;;5025983;28;20466;-75
2023/04/23 06:22:10;;;;;;;5.90;4.20;;;12.60;1.00;;;;;;5031614;28;20034;-75
2023/04/23 06:24:37;;;;;;;8.32;6.13;;;12.70;1.00;;;;;;5030290;28;20033;-75
2023/04/23 06:27:03;;;;;;;12.20;8.48;;;12.80;1.00;;;;;;5031053;28;20029;-75
2023/04/23 06:29:32;;;;;;;5.93;3.58;;;12.70;1.00;;;;;;5024287;28;20041;-75
2023/04/23 06:32:02;;;;;;;19.45;17.17;;;12.50;1.00;;;;;;5027300;28;20068;-75
2023/04/23 06:34:28;;;;;;;5.30;3.70;;;12.50;1.00;;;;;;5028989;28;20046;-75
2023/04/23 06:36:54;;;;;;;5.45;4.95;;;14.10;1.00;;;;;;5030192;28;20033;-75
2023/04/23 06:39:20;;;;;;;3.83;2.72;;;15.90;99.90;;;;;;5030042;28;20033;-75
2023/04/23 06:41:46;;;;;;;2.63;1.70;;;17.30;99.90;;;;;;5028798;28;20482;-75
2023/04/23 06:44:35;;;;;;;3.30;2.55;;;17.60;99.90;;;;;;5020126;28;20056;-76
2023/04/23 06:47:03;;;;;;;5.25;3.47;;;18.60;75.90;;;;;;5026500;28;20390;-76
2023/04/23 06:49:30;;;;;;;4.85;4.15;;;19.00;23.10;;;;;;5030855;28;20037;-76
2023/04/23 06:51:56;;;;;;;2.63;1.45;;;18.90;22.20;;;;;;5030978;28;20049;-76
2023/04/23 06:54:22;;;;;;;8.10;7.40;;;19.10;7.00;;;;;;5028170;28;20037;-76
2023/04/23 06:56:48;;;;;;;2.25;2.00;;;19.10;19.10;;;;;;5024670;28;20041;-77
2023/04/23 06:59:14;;;;;;;4.28;2.08;;;19.20;1.00;;;;;;5028816;28;20033;-75
2023/04/23 07:01:46;;;;;;;2.78;1.88;;;18.80;1.00;;;;;;5030044;28;20398;-75
2023/04/23 07:04:12;;;;;;;3.17;1.60;;;18.60;1.00;;;;;;5018778;28;20037;-78
2023/04/23 07:06:38;;;;;;;3.10;1.70;;;18.50;2.70;;;;;;5030154;28;20030;-76
2023/04/23 07:09:05;;;;;;;2.00;1.52;;;18.00;34.50;;;;;;5029980;28;20034;-77
2023/04/23 07:11:33;;;;;;;1.65;1.23;;;18.30;20.30;;;;;;5028131;28;20049;-75
2023/04/23 07:14:00;;;;;;;2.42;1.60;;;19.10;17.00;;;;;;5030549;28;20040;-77
2023/04/23 07:16:28;;;;;;;2.15;1.40;;;18.50;1.00;;;;;;5027156;28;20036;-74
2023/04/23 07:18:54;;;;;;;1.90;1.23;;;17.30;20.70;;;;;;5031005;28;20041;-75
2023/04/23 07:21:20;;;;;;;2.40;1.48;;;17.80;12.50;;;;;;5029995;28;20046;-74
2023/04/23 07:23:46;;;;;;;2.22;1.50;;;16.40;37.40;;;;;;5030848;28;20033;-74
2023/04/23 07:26:13;;;;;;;1.92;1.40;;;15.80;99.90;;;;;;5028579;28;20029;-75
2023/04/23 07:28:39;;;;;;;3.80;1.67;;;16.90;75.50;;;;;;5027526;28;20040;-75
2023/04/23 07:31:06;;;;;;;2.92;1.90;;;18.20;5.20;;;;;;5030341;28;20045;-76
2023/04/23 07:33:32;;;;;;;2.45;1.60;;;18.60;1.00;;;;;;5029524;28;20041;-75
2023/04/23 07:35:59;;;;;;;5.43;4.07;;;18.40;1.00;;;;;;5027596;28;20033;-81
2023/04/23 07:38:25;;;;;;;4.45;2.20;;;17.50;28.20;;;;;;5018847;28;20044;-74
2023/04/23 07:40:51;;;;;;;2.88;2.20;;;17.20;28.60;;;;;;5031840;28;20053;-75
2023/04/23 07:43:17;;;;;;;2.47;1.60;;;17.20;40.60;;;;;;5030662;28;20084;-75
2023/04/23 07:45:43;;;;;;;2.05;1.35;;;17.30;13.60;;;;;;5030880;28;20050;-76
2023/04/23 07:48:09;;;;;;;2.42;1.40;;;18.20;1.00;;;;;;5028373;28;20387;-75
2023/04/23 07:50:35;;;;;;;3.22;2.17;;;18.10;1.00;;;;;;5028151;28;20034;-76
2023/04/23 07:53:02;;;;;;;2.17;1.58;;;17.60;5.50;;;;;;5030532;28;20025;-75
2023/04/23 07:55:29;;;;;;;3.75;1.92;;;17.40;1.00;;;;;;5027490;28;20558;-75
2023/04/23 07:57:55;;;;;;;3.83;1.60;;;17.00;23.20;;;;;;5024998;28;20493;-75
2023/04/23 08:00:24;;;;;;;1.67;1.27;;;17.30;40.80;;;;;;5022912;28;20045;-75
2023/04/23 08:02:52;;;;;;;3.53;1.58;;;18.20;1.00;;;;;;5023353;28;20033;-75
2023/04/23 08:05:18;;;;;;;2.58;1.33;;;18.40;1.00;;;;;;5021155;28;20121;-75
2023/04/23 08:07:44;;;;;;;4.35;1.75;;;18.10;1.00;;;;;;5029484;28;20045;-75
2023/04/23 08:10:10;;;;;;;3.13;1.15;;;17.10;35.00;;;;;;5033212;28;20030;-74
2023/04/23 08:12:37;;;;;;;4.72;1.60;;;17.00;45.50;;;;;;5028751;28;20063;-74
2023/04/23 08:15:03;;;;;;;1.95;1.35;;;16.60;37.70;;;;;;5032650;28;20497;-75
2023/04/23 08:17:36;;;;;;;2.50;1.50;;;16.30;71.60;;;;;;5026732;28;20041;-74
2023/04/23 08:20:05;;;;;;;4.32;2.25;;;16.10;95.50;;;;;;5034363;28;20060;-74
2023/04/23 08:22:31;;;;;;;3.63;2.55;;;16.10;94.70;;;;;;5033528;28;20048;-74
2023/04/23 08:24:57;;;;;;;2.63;1.23;;;16.20;99.90;;;;;;5033902;28;20458;-75
2023/04/23 08:27:23;;;;;;;2.65;1.63;;;16.80;45.00;;;;;;5032810;28;20052;-75
2023/04/23 08:29:50;;;;;;;5.25;1.90;;;16.90;62.40;;;;;;5033798;28;20072;-75
2023/04/23 08:32:16;;;;;;;2.38;1.45;;;16.50;56.40;;;;;;5032710;28;20033;-74
2023/04/23 08:34:42;;;;;;;3.03;1.20;;;16.70;59.10;;;;;;5030461;28;20037;-74
2023/04/23 08:37:09;;;;;;;3.88;1.90;;;17.90;31.10;;;;;;5032848;28;20479;-75
2023/04/23 08:39:36;;;;;;;2.90;1.95;;;19.40;1.00;;;;;;5019748;28;20056;-74
2023/04/23 08:42:14;;;;;;;2.70;1.58;;;19.70;1.00;;;;;;5022857;28;20041;-81
2023/04/23 08:44:43;;;;;;;2.10;1.45;;;20.00;1.00;;;;;;5023135;28;20037;-74
2023/04/23 08:47:12;;;;;;;2.58;1.83;;;19.60;1.00;;;;;;5022441;28;20041;-74
2023/04/23 08:49:41;;;;;;;2.77;1.23;;;19.60;1.00;;;;;;5028981;28;20033;-74
2023/04/23 08:52:21;;;;;;;1.83;1.20;;;20.20;1.00;;;;;;5032593;28;20048;-74
2023/04/23 08:54:51;;;;;;;2.17;1.48;;;19.90;1.00;;;;;;5021200;28;20057;-74
2023/04/23 08:57:18;;;;;;;1.92;1.40;;;20.40;1.00;;;;;;5030347;28;20029;-74
2023/04/23 08:59:46;;;;;;;2.47;1.35;;;20.40;1.00;;;;;;5033743;28;20041;-75
2023/04/23 09:02:14;;;;;;;2.25;1.63;;;20.40;1.00;;;;;;5031961;28;20034;-75
2023/04/23 09:04:41;;;;;;;2.50;1.40;;;19.80;1.00;;;;;;5031889;28;20036;-75
2023/04/23 09:07:10;;;;;;;3.03;1.52;;;19.50;1.00;;;;;;5031296;28;20037;-74
2023/04/23 09:09:39;;;;;;;4.55;1.30;;;18.50;1.00;;;;;;5028656;28;20044;-75
2023/04/23 09:12:07;;;;;;;2.47;1.42;;;19.10;1.00;;;;;;5027415;28;20033;-74
2023/04/23 09:14:34;;;;;;;5.75;1.80;;;19.70;1.00;;;;;;5023901;28;20041;-74
2023/04/23 09:17:04;;;;;;;1.88;1.30;;;19.80;1.00;;;;;;5023515;28;20557;-75
2023/04/23 09:19:30;;;;;;;4.05;1.50;;;20.60;1.00;;;;;;5032399;28;20044;-75
2023/04/23 09:21:58;;;;;;;2.92;1.52;;;20.60;1.00;;;;;;5033542;28;20372;-73
2023/04/23 09:24:25;;;;;;;2.08;1.23;;;20.40;1.00;;;;;;5032599;28;20493;-75
2023/04/23 09:26:52;;;;;;;2.80;1.50;;;19.50;1.00;;;;;;5031744;28;20352;-74
2023/04/23 09:29:22;;;;;;;1.95;1.38;;;18.90;1.00;;;;;;5032448;28;20038;-74
2023/04/23 09:31:50;;;;;;;2.33;1.55;;;19.40;1.00;;;;;;5033172;28;20036;-75
2023/04/23 09:34:22;;;;;;;2.03;1.25;;;19.80;1.00;;;;;;5032207;28;20463;-77
2023/04/23 09:36:50;;;;;;;1.60;1.10;;;20.00;1.00;;;;;;5032437;28;20053;-73
2023/04/23 09:39:22;;;;;;;3.60;1.75;;;19.90;1.00;;;;;;5032145;28;20037;-81
2023/04/23 09:41:52;;;;;;;2.55;1.30;;;19.60;1.00;;;;;;5033320;28;20045;-73
2023/04/23 09:44:21;;;;;;;2.43;1.20;;;19.50;1.00;;;;;;5028241;28;20458;-73
2023/04/23 09:46:47;;;;;;;3.05;1.40;;;19.10;1.00;;;;;;5030223;28;20036;-73
2023/04/23 09:49:14;;;;;;;3.10;1.58;;;19.00;1.00;;;;;;5032975;28;20033;-74
2023/04/23 09:51:46;;;;;;;3.40;1.30;;;18.70;1.00;;;;;;5032120;28;20033;-73
2023/04/23 09:54:21;;;;;;;2.65;1.27;;;18.70;1.00;;;;;;5032667;28;20049;-73
2023/04/23 09:56:55;;;;;;;1.70;1.30;;;18.50;1.00;;;;;;5031211;28;20048;-73
2023/04/23 09:59:26;;;;;;;2.53;1.38;;;18.70;1.00;;;;;;5031888;28;20034;-73
2023/04/23 10:01:53;;;;;;;2.92;1.52;;;18.60;1.00;;;;;;5033125;28;20049;-73
2023/04/23 10:04:23;;;;;;;2.33;1.15;;;18.60;1.00;;;;;;5032078;28;20044;-74
2023/04/23 10:06:54;;;;;;;;;;;18.50;1.00;;;;;;5031622;28;20040;-73
2023/04/23 10:09:23;;;;;;;;;;;18.90;1.00;;;;;;5032166;28;19913;-73
2023/04/23 10:11:54;;;;;;;3.47;1.92;;;18.90;1.00;;;;;;5031949;28;19920;-73
2023/04/23 10:14:25;;;;;;;5.30;2.63;;;19.10;1.00;;;;;;5031547;28;20034;-74
2023/04/23 10:16:55;;;;;;;2.40;1.55;;;19.30;1.00;;;;;;5027165;28;20383;-73
2023/04/23 10:19:22;;;;;;;;;;;19.30;1.00;;;;;;5028114;28;20030;-73
2023/04/23 10:21:59;;;;;;;2.47;1.40;;;19.10;1.00;;;;;;5027961;28;19905;-73
2023/04/23 10:24:29;;;;;;;2.00;1.67;;;19.10;1.00;;;;;;5028057;28;20044;-73
2023/04/23 10:26:58;;;;;;;2.08;1.45;;;18.80;1.00;;;;;;5029075;28;20040;-73
2023/04/23 10:29:28;;;;;;;2.85;1.55;;;18.60;1.00;;;;;;5031019;28;20033;-73
2023/04/23 10:32:08;;;;;;;2.75;1.40;;;18.70;1.00;;;;;;5027361;28;20034;-74
2023/04/23 10:34:34;;;;;;;2.25;1.30;;;18.90;1.00;;;;;;5028828;28;20044;-73
2023/04/23 10:37:01;;;;;;;2.45;1.58;;;19.20;1.00;;;;;;5024939;28;20374;-73
2023/04/23 10:39:31;;;;;;;2.80;1.50;;;19.30;1.00;;;;;;5030772;28;20056;-74
2023/04/23 10:41:58;;;;;;;2.63;1.45;;;19.10;1.00;;;;;;5026397;28;20443;-73
2023/04/23 10:44:32;;;;;;;2.20;1.20;;;19.10;1.00;;;;;;5030966;28;20034;-75
2023/04/23 10:47:00;;;;;;;3.30;1.27;;;18.90;1.00;;;;;;5030373;28;20383;-74
2023/04/23 10:49:30;;;;;;;2.95;1.25;;;19.00;1.00;;;;;;5030873;28;20037;-75
2023/04/23 10:52:01;;;;;;;2.42;1.05;;;19.10;1.00;;;;;;5031768;28;20033;-77
2023/04/23 10:54:31;;;;;;;2.22;1.40;;;19.30;1.00;;;;;;5030685;28;20131;-76
2023/04/23 10:57:00;;;;;;;3.25;1.25;;;19.10;1.00;;;;;;5030508;28;20400;-75
2023/04/23 10:59:30;;;;;;;2.67;1.20;;;18.90;1.00;;;;;;5030593;28;20030;-77
2023/04/23 11:02:04;;;;;;;2.90;1.33;;;18.80;1.00;;;;;;5031407;28;20034;-77
2023/04/23 11:04:32;;;;;;;3.20;1.60;;;19.30;1.00;;;;;;5030685;28;20037;-77
2023/04/23 11:07:04;;;;;;;4.85;1.30;;;19.70;1.00;;;;;;5029656;28;20029;-76
2023/04/23 11:09:31;;;;;;;2.85;1.10;;;20.20;1.00;;;;;;5030313;28;20045;-77
2023/04/23 11:12:00;;;;;;;2.35;1.13;;;19.90;1.00;;;;;;5031187;28;20036;-77
2023/04/23 11:14:36;;;;;;;3.83;1.65;;;20.00;1.00;;;;;;5030569;28;20455;-77
2023/04/23 11:17:05;;;;;;;1.38;0.95;;;19.80;1.00;;;;;;5030154;28;20033;-76
2023/04/23 11:19:39;;;;;;;2.50;1.17;;;19.00;1.00;;;;;;5030399;28;20037;-76
2023/04/23 11:22:11;;;;;;;0.95;0.80;;;19.00;1.00;;;;;;5027463;28;20101;-77
2023/04/23 11:24:42;;;;;;;3.45;1.10;;;18.80;1.00;;;;;;5027354;28;20370;-77
2023/04/23 11:27:09;;;;;;;;;;;18.70;1.00;;;;;;5027329;28;20034;-77
2023/04/23 11:29:40;;;;;;;3.70;1.00;;;18.90;1.00;;;;;;5026668;28;19909;-77
2023/04/23 11:32:11;;;;;;;2.03;0.90;;;19.10;1.00;;;;;;5027725;28;20033;-77
2023/04/23 11:34:45;;;;;;;1.90;1.10;;;19.50;1.00;;;;;;5027328;28;20042;-76
2023/04/23 11:37:16;;;;;;;3.53;1.00;;;19.20;1.00;;;;;;5029746;28;20927;-77
2023/04/23 11:39:44;;;;;;;2.42;1.23;;;19.60;1.00;;;;;;5030516;28;20045;-76
2023/04/23 11:42:14;;;;;;;1.98;0.95;;;19.60;1.00;;;;;;5031665;28;20049;-77
2023/04/23 11:44:43;;;;;;;1.50;0.80;;;19.50;1.00;;;;;;5034756;28;20486;-77
2023/04/23 11:47:11;;;;;;;2.75;1.38;;;19.60;1.00;;;;;;5032590;28;20042;-76
2023/04/23 11:49:38;;;;;;;2.47;1.10;;;20.00;1.00;;;;;;5034005;28;20029;-77
2023/04/23 11:52:05;;;;;;;2.85;0.90;;;20.00;1.00;;;;;;5034472;28;20029;-78
2023/04/23 11:54:33;;;;;;;1.98;0.93;;;20.10;1.00;;;;;;5034807;28;20060;-78
2023/04/23 11:57:00;;;;;;;2.03;1.02;;;20.60;1.00;;;;;;5028513;28;20032;-77
2023/04/23 11:59:27;;;;;;;1.90;0.93;;;20.50;1.00;;;;;;5033958;28;20049;-77
2023/04/23 12:01:56;;;;;;;3.03;1.02;;;20.40;1.00;;;;;;5034591;28;20497;-77
2023/04/23 12:04:24;;;;;;;3.63;1.00;;;19.90;1.00;;;;;;5034122;28;20060;-77
2023/04/23 12:06:52;;;;;;;1.55;0.80;;;19.90;1.00;;;;;;5033852;28;20033;-77
2023/04/23 12:09:21;;;;;;;1.00;0.85;;;19.90;1.00;;;;;;5034286;28;20037;-77
2023/04/23 12:11:49;;;;;;;4.05;0.90;;;20.00;1.00;;;;;;5031523;28;20046;-77
2023/04/23 12:14:17;;;;;;;1.77;0.90;;;20.50;1.00;;;;;;5034153;28;20475;-77
2023/04/23 12:16:45;;;;;;;2.25;0.60;;;20.50;1.00;;;;;;5032500;28;20201;-77
2023/04/23 12:19:17;;;;;;;5.03;1.33;;;20.40;1.00;;;;;;5034395;28;20044;-76
2023/04/23 12:21:53;;;;;;;2.35;0.90;;;20.20;1.00;;;;;;5033592;28;20041;-76
2023/04/23 12:24:30;;;;;;;1.67;0.70;;;20.10;1.00;;;;;;5034048;28;20060;-76
2023/04/23 12:26:59;;;;;;;2.65;0.77;;;20.10;1.00;;;;;;5031447;28;20359;-76
2023/04/23 12:29:28;;;;;;;1.83;0.70;;;20.20;1.00;;;;;;5033815;28;20026;-78
2023/04/23 12:31:58;;;;;;;1.58;0.98;;;20.30;1.00;;;;;;5034329;28;20466;-76
2023/04/23 12:34:24;;;;;;;0.80;0.50;;;20.40;1.00;;;;;;5031888;28;20394;-78
2023/04/23 12:36:53;;;;;;;1.02;0.60;;;20.60;1.00;;;;;;5033264;28;20029;-76
2023/04/23 12:39:28;;;;;;;1.58;0.80;;;20.70;1.00;;;;;;5032444;28;20037;-77
2023/04/23 12:42:05;;;;;;;3.00;0.90;;;20.40;1.00;;;;;;5032975;28;20049;-78
2023/04/23 12:44:34;;;;;;;3.13;0.88;;;20.50;1.00;;;;;;5031941;28;20052;-79
2023/04/23 12:47:06;;;;;;;1.17;0.65;;;20.80;1.00;;;;;;5032790;28;20406;-78
2023/04/23 12:49:37;;;;;;;2.03;0.63;;;20.80;1.00;;;;;;5033536;28;20022;-78
2023/04/23 12:52:05;;;;;;;1.33;0.63;;;20.80;1.00;;;;;;5033884;28;20034;-78
2023/04/23 12:54:36;;;;;;;1.23;0.70;;;21.10;1.00;;;;;;5032300;28;20045;-78
2023/04/23 12:57:04;;;;;;;4.32;0.77;;;21.30;1.00;;;;;;5046046;28;20040;-78